Messwerte Wetterstation Großenkneten 44m (Niedersachsen)

Aktuelle Messwerte

Temperatur und Niederschlag
Taupunkt, Temperatur und Luftfeuchtigkeit

Anzeige

Datum Temperatur °C Niederschlag l/m² (10 min) Taupunkt °C Rel. Feuchte %
20.04 - 07:50 Uhr - 0.0 - -
20.04 - 07:40 Uhr - 0.0 - -
20.04 - 07:30 Uhr - 0.0 - -
20.04 - 07:20 Uhr 5.5 0.0 4.2 92
20.04 - 07:10 Uhr 5.4 0.0 4.3 93
20.04 - 07:00 Uhr 5.3 0.0 4.1 92
20.04 - 06:50 Uhr 5.2 0.0 4.1 92
20.04 - 06:40 Uhr 5.2 0.0 4.2 93
20.04 - 06:30 Uhr 5.2 0.0 4.0 92
20.04 - 06:20 Uhr 5.1 0.0 4.0 93
20.04 - 06:10 Uhr 5.3 0.0 4.1 92
20.04 - 06:00 Uhr 5.4 0.0 4.1 92
20.04 - 05:50 Uhr 5.4 0.0 4.2 92
20.04 - 05:40 Uhr 5.5 0.0 4.3 92
20.04 - 05:30 Uhr 5.4 0.0 4.2 92
20.04 - 05:20 Uhr 5.5 0.0 4.4 92
20.04 - 05:10 Uhr 5.3 0.0 4.2 93
20.04 - 05:00 Uhr 5.2 0.0 4.2 93
20.04 - 04:50 Uhr 5.3 0.0 4.3 93
20.04 - 04:40 Uhr 5.2 0.0 4.2 93
20.04 - 04:30 Uhr 5.2 0.0 4.3 94
20.04 - 04:20 Uhr 5.1 0.0 4.4 95
20.04 - 04:10 Uhr 5.0 0.0 4.2 94
20.04 - 04:00 Uhr 5.1 0.0 4.3 95
20.04 - 03:50 Uhr 5.2 0.0 4.4 95
20.04 - 03:40 Uhr 5.0 0.0 4.3 95
20.04 - 03:30 Uhr 5.2 0.0 4.5 95
20.04 - 03:20 Uhr 5.1 0.0 4.4 96
20.04 - 03:10 Uhr 5.0 0.0 4.5 96
20.04 - 03:00 Uhr 5.1 0.0 4.5 96
20.04 - 02:50 Uhr 5.3 0.0 4.6 95
20.04 - 02:40 Uhr 5.4 0.0 4.7 95
20.04 - 02:30 Uhr 5.5 0.0 4.7 94
20.04 - 02:20 Uhr 5.7 0.0 4.8 94
20.04 - 02:10 Uhr 5.8 0.0 4.7 93
20.04 - 02:00 Uhr 5.9 0.0 4.8 93
20.04 - 01:50 Uhr 6.0 0.0 4.8 92
20.04 - 01:40 Uhr 6.2 0.0 4.9 92
20.04 - 01:30 Uhr 6.5 0.0 5.2 91
20.04 - 01:20 Uhr 6.5 0.0 5.2 91
20.04 - 01:10 Uhr 6.5 0.0 5.1 91
20.04 - 01:00 Uhr 6.6 0.0 5.1 90
20.04 - 00:50 Uhr 6.7 0.0 5.1 89
20.04 - 00:40 Uhr 6.7 0.0 5.2 90
20.04 - 00:30 Uhr 6.8 0.0 5.2 90
20.04 - 00:20 Uhr 6.9 0.0 5.2 89
20.04 - 00:10 Uhr 7.0 0.0 5.3 89
20.04 - 00:00 Uhr 7.0 0.0 5.3 89
19.04 - 23:50 Uhr 6.8 0.0 5.3 90
19.04 - 23:40 Uhr 6.8 0.0 5.2 90
19.04 - 23:30 Uhr 6.8 0.0 5.1 89
19.04 - 23:20 Uhr 6.8 0.0 5.1 89
19.04 - 23:10 Uhr 6.5 0.0 5.0 90
19.04 - 23:00 Uhr 6.6 0.0 4.8 88
19.04 - 22:50 Uhr 6.7 0.0 4.8 88
19.04 - 22:40 Uhr 6.9 0.0 5.0 87
19.04 - 22:30 Uhr 7.2 0.0 5.1 87
19.04 - 22:20 Uhr 7.2 0.0 5.4 89
19.04 - 22:10 Uhr 7.4 0.0 5.4 87
19.04 - 22:00 Uhr 7.7 0.0 5.6 86
19.04 - 21:50 Uhr 7.9 0.0 5.6 85
19.04 - 21:40 Uhr 8.0 0.0 6.0 87
19.04 - 21:30 Uhr 8.0 0.0 6.2 88
19.04 - 21:20 Uhr 7.9 0.0 6.6 92
19.04 - 21:10 Uhr 7.9 0.0 6.6 92
19.04 - 21:00 Uhr 7.9 0.0 6.4 90
19.04 - 20:50 Uhr 8.1 0.0 6.2 88
19.04 - 20:40 Uhr 8.1 0.0 6.2 88
19.04 - 20:30 Uhr 8.4 0.0 6.5 88
19.04 - 20:20 Uhr 8.4 0.0 6.4 87
19.04 - 20:10 Uhr 8.4 0.0 6.5 88
19.04 - 20:00 Uhr 8.4 0.0 6.6 89
19.04 - 19:50 Uhr 8.3 0.0 6.5 88
19.04 - 19:40 Uhr 8.3 0.0 6.6 89
19.04 - 19:30 Uhr 8.4 0.0 6.6 89
19.04 - 19:20 Uhr 8.5 0.0 7.2 92
19.04 - 19:10 Uhr 9.0 0.0 6.8 86
19.04 - 19:00 Uhr 9.0 0.0 6.3 83
19.04 - 18:50 Uhr 9.2 0.0 6.7 84
19.04 - 18:40 Uhr 9.0 0.0 6.6 85
19.04 - 18:30 Uhr 9.0 0.0 6.7 85
19.04 - 18:20 Uhr 9.7 0.0 6.1 79
19.04 - 18:10 Uhr 10.0 0.0 6.5 79
19.04 - 18:00 Uhr 9.9 0.0 6.2 78
19.04 - 17:50 Uhr 9.9 0.0 6.1 77
19.04 - 17:40 Uhr 10.3 0.0 7.0 80
19.04 - 17:30 Uhr 10.3 0.0 6.8 79
19.04 - 17:20 Uhr 10.2 0.0 7.2 81
19.04 - 17:10 Uhr 10.1 0.0 7.5 84
19.04 - 17:00 Uhr 9.9 0.0 7.4 85
19.04 - 16:50 Uhr 9.9 0.0 7.7 86
19.04 - 16:40 Uhr 9.6 0.0 7.3 86
19.04 - 16:30 Uhr 9.8 0.0 7.4 85
19.04 - 16:20 Uhr 10.3 0.0 7.9 85
19.04 - 16:10 Uhr 10.3 0.0 8.0 86
19.04 - 16:00 Uhr 10.5 0.0 8.2 86
19.04 - 15:50 Uhr 10.5 0.0 8.5 87
19.04 - 15:40 Uhr 9.8 0.0 8.3 90
19.04 - 15:30 Uhr 10.0 0.0 7.7 85
19.04 - 15:20 Uhr 10.1 0.0 8.7 91
19.04 - 15:10 Uhr 9.6 0.1 8.6 94
19.04 - 15:00 Uhr 9.5 0.4 8.2 92
19.04 - 14:50 Uhr 10.7 0.0 7.8 82
19.04 - 14:40 Uhr 11.4 0.0 6.7 73
19.04 - 14:30 Uhr 11.6 0.0 6.9 73
19.04 - 14:20 Uhr 11.2 0.0 5.5 68
19.04 - 14:10 Uhr 11.2 0.0 5.4 68
19.04 - 14:00 Uhr 11.5 0.0 5.3 66
19.04 - 13:50 Uhr 12.0 0.0 5.5 65
19.04 - 13:40 Uhr 11.4 0.0 5.9 69
19.04 - 13:30 Uhr 11.5 0.0 6.1 69
19.04 - 13:20 Uhr 11.5 0.0 6.1 70
19.04 - 13:10 Uhr 11.7 0.0 6.8 72
19.04 - 13:00 Uhr 11.3 0.0 6.6 73
19.04 - 12:50 Uhr 10.7 0.0 6.9 77
19.04 - 12:40 Uhr 10.2 0.0 7.4 83
19.04 - 12:30 Uhr 9.9 0.0 6.9 82
19.04 - 12:20 Uhr 10.2 0.0 6.9 80
19.04 - 12:10 Uhr 10.7 0.0 7.3 79
19.04 - 12:00 Uhr 10.6 0.0 6.8 77
19.04 - 11:50 Uhr 10.2 0.0 7.2 82
19.04 - 11:40 Uhr 10.1 0.0 7.1 82
19.04 - 11:30 Uhr 10.1 0.0 7.0 81
19.04 - 11:20 Uhr 10.5 0.0 7.4 81
19.04 - 11:10 Uhr 10.2 0.0 7.8 85
19.04 - 11:00 Uhr 9.6 0.0 7.7 88
19.04 - 10:50 Uhr 9.6 0.0 7.6 88
19.04 - 10:40 Uhr 9.4 0.0 7.6 88
19.04 - 10:30 Uhr 9.2 0.0 8.0 92
19.04 - 10:20 Uhr 9.1 0.0 7.6 90
19.04 - 10:10 Uhr 9.1 0.0 7.7 91
19.04 - 10:00 Uhr 9.0 0.0 7.5 90
19.04 - 09:50 Uhr 9.0 0.0 7.3 89
19.04 - 09:40 Uhr 8.5 0.0 7.1 91
19.04 - 09:30 Uhr 8.2 0.0 7.0 92
19.04 - 09:20 Uhr 8.1 0.0 7.3 94
19.04 - 09:10 Uhr 7.8 0.0 7.1 95
19.04 - 09:00 Uhr 7.7 0.0 7.3 97
19.04 - 08:50 Uhr 7.5 0.0 7.1 97
19.04 - 08:40 Uhr 7.3 0.0 7.0 98
19.04 - 08:30 Uhr 7.3 0.0 7.2 99
19.04 - 08:20 Uhr 7.1 0.0 6.9 99
19.04 - 08:10 Uhr 7.1 0.0 7.0 99
19.04 - 08:00 Uhr 7.0 0.0 7.0 100

Daten: Quelle DWD